Clover Valley, Nevada Weather observations

Data are for 10 minute period ending at time listed.
 Day   Time   Solar   Ave.   Ave.  Ave.  Vector  Max.   Baro.   Total    
  of    of     Rad.   Air    Rel.  Wind   Wind   Wind  Press.  Precip.   
Year   Day            Temp.  Hum.  Speed  Dir.   Gust                    
2016   (PST)  Kw/m2    F      %     mph   deg.    mph    mb.     in.     
-------------------------------------------------------------------------
 208   14:20   0.76   89.5    12   10.5   252    23.2   828.9    0.00 
 208   14:30   0.71   89.0    12   13.3   255    24.5   828.9    0.00 
 208   14:40   0.72   89.3    11   12.2   273    20.7   828.8    0.00 
 208   14:50   0.69   88.8    12   14.9   247    25.8   828.7    0.00 
 208   15:00   0.67   88.7    12   11.9   248    24.2   828.6    0.00 
 208   15:10   0.63   88.9    13    9.0   248    19.9   828.6    0.00 
 208   15:20   0.61   89.6    11    8.6   266    17.2   828.5    0.00 
 208   15:30   0.59   89.1    11   11.8   266    20.2   828.6    0.00 
 208   15:40   0.56   88.9    12   10.6   260    22.1   828.5    0.00 
 208   15:50   0.53   88.6    13    9.4   258    19.3   828.4    0.00 
 208   16:00   0.47   88.8    11   11.0   284    23.1   828.4    0.00 
 208   16:10   0.47   87.8    13    8.2   301    16.1   828.4    0.00 
 208   16:20   0.44   88.5    13    9.3   294    22.1   828.4    0.00 
 208   16:30   0.41   88.3    11    9.2   268    18.0   828.2    0.00 
 208   16:40   0.38   88.6    12    7.7   290    13.9   828.2    0.00 
 208   16:50   0.35   87.9    11    9.7   294    18.3   828.2    0.00 
 208   17:00   0.32   87.5    13    7.4   297    14.3   828.1    0.00 
 208   17:10   0.29   87.6    13    8.0   306    16.0   828.1    0.00 
 208   17:20   0.26   87.0    12    6.6   291    12.0   827.9    0.00 
 208   17:30   0.23   85.9    13    8.5   323    13.8   827.9    0.00 
 208   17:40   0.20   85.8    13    6.5   295    14.1   828.0    0.00 
 208   17:50   0.17   86.0    12    6.4   279    11.1   828.0    0.00 
 208   18:00   0.14   86.0    11    8.6   286    15.9   828.0    0.00 
 208   18:10   0.11   85.9    13    4.1   290     6.2   828.1    0.00 
 208   18:20   0.09   83.4    16    5.5   310     8.7   828.1    0.00 
 208   18:30   0.03   81.2    14    5.6   346     7.8   828.0    0.00 
 208   18:40   0.01   79.1    16    4.7   319     6.8   828.1    0.00 
 208   18:50   0.01   76.8    19    3.2   316     5.6   828.3    0.00 
 208   19:00   0.01   76.4    15    3.4   319     5.8   828.4    0.00 
 208   19:10   0.00   74.6    19    5.0   319     6.7   828.5    0.00 
 208   19:20   0.00   71.3    21    4.8   332     7.7   828.6    0.00 
 208   19:30   0.00   71.1    18    4.2   303     5.7   828.8    0.00 
 208   19:40   0.00   71.2    19    5.6   314     6.6   829.0    0.00 
 208   19:50   0.00   69.2    23    5.4   321     7.7   829.1    0.00 
 208   20:00   0.00   65.7    24    3.7   319     4.9   829.2    0.00 
 208   20:10   0.00   67.5    25    4.7   333     9.3   829.3    0.00 
 208   20:20   0.00   64.0    29    5.8   329    10.7   829.4    0.00 
 208   20:30   0.00   64.2    28    5.8   348     7.5   829.5    0.00 
 208   20:40   0.00   64.4    28    5.3   355     7.7   829.6    0.00 
 208   20:50   0.00   62.2    29    5.7   327     9.9   829.6    0.00 
 208   21:00   0.00   63.8    25    5.3     3     6.6   829.7    0.00 
 208   21:10   0.00   65.5    24    5.2   347     6.9   829.7    0.00 
 208   21:20   0.00   62.2    28    6.1   329     9.3   829.7    0.00 
 208   21:30   0.00   61.3    30    6.4   343     8.6   829.7    0.00 
 208   21:40   0.00   62.5    26    6.8   346     8.6   829.7    0.00 
 208   21:50   0.00   62.9    24    7.4   328     9.6   829.9    0.00 
 208   22:00   0.00   65.2    21    8.0   315    11.6   829.9    0.00 
 208   22:10   0.00   63.8    26    5.2   352     8.4   830.1    0.00 
 208   22:20   0.00   63.3    25    3.0    19     8.8   830.1    0.00 
 208   22:30   0.00   66.8    22    2.6   308     5.5   830.2    0.00 
 208   22:40   0.00   67.7    22    1.5   319     3.8   830.2    0.00 
 208   22:50   0.00   69.3    22    4.9   301     7.5   830.3    0.00 
 208   23:00   0.00   64.8    31    7.2   322     9.6   830.3    0.00 
 208   23:10   0.00   64.2    32    6.8   325     8.8   830.2    0.00 
 208   23:20   0.00   64.1    32    4.6   331     5.6   830.3    0.00 
 208   23:30   0.00   62.8    34    4.8    72     9.9   830.4    0.00 
 208   23:40   0.00   61.8    35    2.0    48     3.1   830.5    0.00 
 208   23:50   0.00   63.6    30    2.2    46     2.8   830.4    0.00 
 209    0:00   0.00   62.7    29    0.3    92     2.3   830.4    0.00 
 209    0:10   0.00   63.5    27    0.4    89     1.2   830.5    0.00 
 209    0:20   0.00   65.3    27    1.8     5     3.4   830.5    0.00 
 209    0:30   0.00   63.6    31    2.3    33     7.5   830.5    0.00 
 209    0:40   0.00   58.8    44    2.8   202     6.2   830.5    0.00 
 209    0:50   0.00   54.6    43    3.2   261     3.9   830.5    0.00 
 209    1:00   0.00   54.8    37    3.2   273     3.9   830.5    0.00 
 209    1:10   0.00   53.5    45    2.5   254     3.5   830.5    0.00 
 209    1:20   0.00   53.5    41    4.6   290     5.3   830.4    0.00 
 209    1:30   0.00   51.7    46    4.1   306     4.5   830.4    0.00 
 209    1:40   0.00   52.0    42    3.7   292     5.0   830.4    0.00 
 209    1:50   0.00   51.0    52    3.4   313     4.5   830.4    0.00 
 209    2:00   0.00   50.0    53    3.1   349     3.9   830.4    0.00 
 209    2:10   0.00   49.8    54    3.6   350     5.6   830.4    0.00 
 209    2:20   0.00   47.5    68    4.5    66     9.0   830.4    0.00 
 209    2:30   0.00   49.7    55    2.7   109     6.4   830.4    0.00 
 209    2:40   0.00   49.5    54    1.6   145     2.6   830.5    0.00 
 209    2:50   0.00   50.0    49    2.5   213     3.9   830.7    0.00 
 209    3:00   0.00   49.7    50    3.2   257     4.6   830.8    0.00 
 209    3:10   0.00   48.7    49    4.5   282     6.9   830.8    0.00 
 209    3:20   0.00   48.5    48    5.4   294     6.0   830.7    0.00 
 209    3:30   0.00   48.6    51    3.7   322     6.2   830.7    0.00 
 209    3:40   0.00   47.3    56    3.7   346     4.8   830.7    0.00 
 209    3:50   0.00   47.1    56    4.2   356     5.8   830.8    0.00 
 209    4:00   0.00   45.7    67    3.4    44     6.9   830.8    0.00 
 209    4:10   0.00   45.2    64    4.0     6     4.8   830.9    0.00 
 209    4:20   0.00   45.1    66    2.7   174     4.3   831.0    0.00 
 209    4:30   0.00   45.4    67    2.2   235     3.7   831.1    0.00 
 209    4:40   0.00   45.6    66    3.1   244     3.9   831.2    0.00 
 209    4:50   0.00   46.6    62    3.7   286     4.7   831.2    0.00 
 209    5:00   0.00   47.1    61    2.8   262     4.7   831.2    0.00 
 209    5:10   0.00   49.1    59    2.2   248     3.7   831.4    0.00 
 209    5:20   0.00   49.3    60    4.3   295     5.3   831.4    0.00 
 209    5:30   0.09   50.9    61    2.5   327     4.6   831.5    0.00 
 209    5:40   0.12   53.2    63    1.8   310     3.0   831.7    0.00 
 209    5:50   0.15   55.7    60    1.2   351     2.1   831.8    0.00 
 209    6:00   0.17   58.5    56    0.5    12     1.6   831.9    0.00 
 209    6:10   0.20   59.0    62    1.6    88     2.4   832.1    0.00 
 209    6:20   0.24   59.4    58    1.3    61     2.0   832.2    0.00 
 209    6:30   0.27   61.7    49    0.8    78     2.3   832.3    0.00 
 209    6:40   0.31   64.7    44    0.2    75     1.4   832.4    0.00 
 209    6:50   0.15   66.7    43    0.3    67     1.2   832.5    0.00 
 209    7:00   0.19   67.6    44    0.2    87     1.0   832.6    0.00 
 209    7:10   0.40   68.9    48    1.3    97     1.9   832.6    0.00 
 209    7:20   0.43   69.3    42    1.6   142     2.6   832.7    0.00 
 209    7:30   0.41   73.1    32    1.5   159     2.9   832.7    0.00 
 209    7:40   0.41   72.5    37    1.8    97     2.9   832.6    0.00 
 209    7:50   0.52   74.0    33    1.9    77     3.2   832.6    0.00 
 209    8:00   0.55   75.1    34    2.0    90     3.2   832.6    0.00 
 209    8:10   0.58   75.8    35    2.0    68     3.0   832.4    0.00 
 209    8:20   0.54   75.7    38    2.2    50     3.2   832.3    0.00 
 209    8:30   0.62   76.5    37    2.0    50     2.7   832.2    0.00 
 209    8:40   0.64   77.5    34    2.0    42     3.4   832.1    0.00 
 209    8:50   0.67   79.5    33    1.6    66     2.6   832.0    0.00 
 209    9:00   0.71   81.0    28    2.6    96     4.5   831.9    0.00 
 209    9:10   0.73   81.2    27    4.4   117     6.1   831.8    0.00 
 209    9:20   0.75   81.6    27    4.3   110     6.6   831.7    0.00 
 209    9:30   0.77   82.2    24    4.9   108     8.0   831.6    0.00 
 209    9:40   0.79   83.5    21    3.4   128     7.7   831.6    0.00 
 209    9:50   0.57   85.6    20    2.8   152     5.9   831.5    0.00 
 209   10:00   0.78   87.7    16    3.7   180     9.1   831.5    0.00 
 209   10:10   0.82   88.3    16    3.9   198    11.8   831.4    0.00 
 209   10:20   0.85   89.1    14    5.6   193     9.8   831.3    0.00 
 209   10:30   0.86   88.4    14    6.3   162    12.0   831.2    0.00 
 209   10:40   0.87   88.5    14    6.9   184    11.3   831.2    0.00 
 209   10:50   0.88   87.7    16    6.0   128    13.5   831.0    0.00 
 209   11:00   0.89   87.7    18    5.5   120    10.9   831.0    0.00 
 209   11:10   0.90   87.4    18    6.1    98    10.7   830.9    0.00 
 209   11:20   0.90   88.4    16    6.0   112    11.9   830.9    0.00 
 209   11:30   0.90   90.1    12    5.1   161    12.0   830.8    0.00 
 209   11:40   0.91   91.0    12    2.5   304     5.9   830.8    0.00 
 209   11:50   0.91   90.6    12    2.0    63     6.8   830.7    0.00 
 209   12:00   0.91   91.8    14    3.7   191     8.7   830.7    0.00 
 209   12:10   0.91   90.7    15    7.5   258    14.4   830.7    0.00 
 209   12:20   0.90   91.0    16    6.8   221    12.3   830.5    0.00 
 209   12:30   0.90   91.2    14    7.6   198    13.4   830.5    0.00 
 209   12:40   0.89   91.1    15    9.2   245    16.5   830.5    0.00 
 209   12:50   0.88   90.7    15   11.5   233    21.8   830.3    0.00 
 209   13:00   0.88   91.4    12    9.8   258    23.2   830.3    0.00 
 209   13:10   0.86   92.3    13    8.3   263    23.9   830.3    0.00 
 209   13:20   0.85   91.5    13    9.4   256    19.1   830.4    0.00 
 209   13:30   0.84   91.1    13    9.5   243    20.5   830.3    0.00 
 209   13:40   0.82   91.3    14   11.5   248    20.9   830.2    0.00 
 209   13:50   0.80   91.4    12   12.3   257    25.7   830.1    0.00 
 209   14:00   0.79   91.1    14   11.4   243    22.9   830.0    0.00 
 209   14:10   0.71   91.2    12   13.3   279    26.1   830.0    0.00 

Return to Clover Valley graphs page.


Western Regional Climate Center,wrcc@dri.edu